sensor_id;sensor_type;location;lat;lon;timestamp;P1;durP1;ratioP1;P2;durP2;ratioP2
57985;SDS011;43788;42.670;23.330;2022-12-15T00:01:10;0.30;;;0.30;;
57985;SDS011;43788;42.670;23.330;2022-12-15T00:03:54;0.30;;;0.30;;
57985;SDS011;43788;42.670;23.330;2022-12-15T00:06:38;0.30;;;0.30;;
57985;SDS011;43788;42.670;23.330;2022-12-15T00:12:10;0.30;;;0.30;;
57985;SDS011;43788;42.670;23.330;2022-12-15T00:17:41;0.20;;;0.20;;
57985;SDS011;43788;42.670;23.330;2022-12-15T00:20:26;0.10;;;0.10;;
57985;SDS011;43788;42.670;23.330;2022-12-15T00:23:10;0.40;;;0.40;;
57985;SDS011;43788;42.670;23.330;2022-12-15T00:25:55;0.30;;;0.30;;
57985;SDS011;43788;42.670;23.330;2022-12-15T00:28:39;0.38;;;0.30;;
57985;SDS011;43788;42.670;23.330;2022-12-15T00:31:22;0.10;;;0.10;;
57985;SDS011;43788;42.670;23.330;2022-12-15T00:34:06;0.30;;;0.30;;
57985;SDS011;43788;42.670;23.330;2022-12-15T00:36:50;0.20;;;0.20;;
57985;SDS011;43788;42.670;23.330;2022-12-15T00:39:35;0.30;;;0.30;;
57985;SDS011;43788;42.670;23.330;2022-12-15T00:42:00;0.20;;;0.20;;
57985;SDS011;43788;42.670;23.330;2022-12-15T00:44:26;0.35;;;0.35;;
57985;SDS011;43788;42.670;23.330;2022-12-15T00:46:51;0.30;;;0.30;;
57985;SDS011;43788;42.670;23.330;2022-12-15T00:49:23;0.20;;;0.20;;
57985;SDS011;43788;42.670;23.330;2022-12-15T00:52:08;0.10;;;0.10;;
57985;SDS011;43788;42.670;23.330;2022-12-15T00:54:52;0.30;;;0.30;;
57985;SDS011;43788;42.670;23.330;2022-12-15T00:57:37;0.30;;;0.30;;
57985;SDS011;43788;42.670;23.330;2022-12-15T01:00:22;0.25;;;0.25;;
57985;SDS011;43788;42.670;23.330;2022-12-15T01:03:10;0.40;;;0.40;;
57985;SDS011;43788;42.670;23.330;2022-12-15T01:05:54;0.40;;;0.40;;
57985;SDS011;43788;42.670;23.330;2022-12-15T01:08:38;0.30;;;0.30;;
57985;SDS011;43788;42.670;23.330;2022-12-15T01:11:22;0.30;;;0.30;;
57985;SDS011;43788;42.670;23.330;2022-12-15T01:14:06;0.28;;;0.28;;
57985;SDS011;43788;42.670;23.330;2022-12-15T01:16:50;0.20;;;0.20;;
57985;SDS011;43788;42.670;23.330;2022-12-15T01:19:34;0.20;;;0.20;;
57985;SDS011;43788;42.670;23.330;2022-12-15T01:22:18;0.20;;;0.20;;
57985;SDS011;43788;42.670;23.330;2022-12-15T01:24:43;0.30;;;0.30;;
57985;SDS011;43788;42.670;23.330;2022-12-15T01:27:10;1.10;;;0.38;;
57985;SDS011;43788;42.670;23.330;2022-12-15T01:29:36;0.40;;;0.40;;
57985;SDS011;43788;42.670;23.330;2022-12-15T01:32:02;0.20;;;0.20;;
57985;SDS011;43788;42.670;23.330;2022-12-15T01:34:28;0.20;;;0.20;;
57985;SDS011;43788;42.670;23.330;2022-12-15T01:36:53;0.17;;;0.17;;
57985;SDS011;43788;42.670;23.330;2022-12-15T01:39:19;0.20;;;0.20;;
57985;SDS011;43788;42.670;23.330;2022-12-15T01:41:45;0.25;;;0.25;;
57985;SDS011;43788;42.670;23.330;2022-12-15T01:44:14;0.30;;;0.30;;
57985;SDS011;43788;42.670;23.330;2022-12-15T01:46:41;0.35;;;0.35;;
57985;SDS011;43788;42.670;23.330;2022-12-15T01:49:23;0.45;;;0.40;;
57985;SDS011;43788;42.670;23.330;2022-12-15T01:51:52;0.30;;;0.30;;
57985;SDS011;43788;42.670;23.330;2022-12-15T01:56:52;0.45;;;0.45;;
57985;SDS011;43788;42.670;23.330;2022-12-15T01:59:21;0.30;;;0.30;;
57985;SDS011;43788;42.670;23.330;2022-12-15T02:01:49;0.40;;;0.40;;
57985;SDS011;43788;42.670;23.330;2022-12-15T02:04:17;0.10;;;0.10;;
57985;SDS011;43788;42.670;23.330;2022-12-15T02:06:43;0.10;;;0.10;;
57985;SDS011;43788;42.670;23.330;2022-12-15T02:12:51;0.00;;;0.00;;
57985;SDS011;43788;42.670;23.330;2022-12-15T02:25:22;0.10;;;0.10;;
57985;SDS011;43788;42.670;23.330;2022-12-15T02:28:36;0.10;;;0.10;;
57985;SDS011;43788;42.670;23.330;2022-12-15T02:31:05;0.13;;;0.13;;
57985;SDS011;43788;42.670;23.330;2022-12-15T02:33:51;0.10;;;0.10;;
57985;SDS011;43788;42.670;23.330;2022-12-15T02:38:47;0.07;;;0.07;;
57985;SDS011;43788;42.670;23.330;2022-12-15T02:46:53;0.10;;;0.10;;
57985;SDS011;43788;42.670;23.330;2022-12-15T02:55:11;0.20;;;0.20;;
57985;SDS011;43788;42.670;23.330;2022-12-15T03:00:06;0.10;;;0.10;;
57985;SDS011;43788;42.670;23.330;2022-12-15T03:02:35;0.13;;;0.13;;
57985;SDS011;43788;42.670;23.330;2022-12-15T03:05:02;0.10;;;0.10;;
57985;SDS011;43788;42.670;23.330;2022-12-15T03:07:28;0.10;;;0.10;;
57985;SDS011;43788;42.670;23.330;2022-12-15T03:09:54;0.00;;;0.00;;
57985;SDS011;43788;42.670;23.330;2022-12-15T03:15:13;0.20;;;0.20;;
57985;SDS011;43788;42.670;23.330;2022-12-15T03:22:56;0.10;;;0.10;;
57985;SDS011;43788;42.670;23.330;2022-12-15T03:25:21;0.10;;;0.10;;
57985;SDS011;43788;42.670;23.330;2022-12-15T03:27:46;0.20;;;0.20;;
57985;SDS011;43788;42.670;23.330;2022-12-15T03:30:12;0.28;;;0.28;;
57985;SDS011;43788;42.670;23.330;2022-12-15T03:32:38;0.10;;;0.10;;
57985;SDS011;43788;42.670;23.330;2022-12-15T03:35:03;0.20;;;0.20;;
57985;SDS011;43788;42.670;23.330;2022-12-15T03:37:29;0.10;;;0.10;;
57985;SDS011;43788;42.670;23.330;2022-12-15T03:39:54;0.30;;;0.30;;
57985;SDS011;43788;42.670;23.330;2022-12-15T03:42:20;0.10;;;0.10;;
57985;SDS011;43788;42.670;23.330;2022-12-15T03:45:05;0.00;;;0.00;;
57985;SDS011;43788;42.670;23.330;2022-12-15T03:47:32;0.10;;;0.10;;
57985;SDS011;43788;42.670;23.330;2022-12-15T03:49:57;0.20;;;0.20;;
57985;SDS011;43788;42.670;23.330;2022-12-15T03:55:19;0.40;;;0.40;;
57985;SDS011;43788;42.670;23.330;2022-12-15T04:00:36;0.38;;;0.38;;
57985;SDS011;43788;42.670;23.330;2022-12-15T04:03:03;0.30;;;0.30;;
57985;SDS011;43788;42.670;23.330;2022-12-15T04:05:30;0.35;;;0.35;;
57985;SDS011;43788;42.670;23.330;2022-12-15T04:07:57;0.20;;;0.20;;
57985;SDS011;43788;42.670;23.330;2022-12-15T04:10:24;0.20;;;0.20;;
57985;SDS011;43788;42.670;23.330;2022-12-15T04:12:58;0.40;;;0.40;;
57985;SDS011;43788;42.670;23.330;2022-12-15T04:15:24;0.47;;;0.47;;
57985;SDS011;43788;42.670;23.330;2022-12-15T04:20:43;0.30;;;0.30;;
57985;SDS011;43788;42.670;23.330;2022-12-15T04:23:08;0.47;;;0.47;;
57985;SDS011;43788;42.670;23.330;2022-12-15T04:25:34;0.30;;;0.30;;
57985;SDS011;43788;42.670;23.330;2022-12-15T04:28:19;0.30;;;0.30;;
57985;SDS011;43788;42.670;23.330;2022-12-15T04:31:09;0.20;;;0.20;;
57985;SDS011;43788;42.670;23.330;2022-12-15T04:33:55;0.17;;;0.17;;
57985;SDS011;43788;42.670;23.330;2022-12-15T04:36:43;0.60;;;0.52;;
57985;SDS011;43788;42.670;23.330;2022-12-15T04:39:28;0.20;;;0.20;;
57985;SDS011;43788;42.670;23.330;2022-12-15T04:42:12;0.20;;;0.20;;
57985;SDS011;43788;42.670;23.330;2022-12-15T04:44:56;0.20;;;0.20;;
57985;SDS011;43788;42.670;23.330;2022-12-15T04:47:43;0.10;;;0.10;;
57985;SDS011;43788;42.670;23.330;2022-12-15T04:50:27;0.20;;;0.20;;
57985;SDS011;43788;42.670;23.330;2022-12-15T04:53:15;0.20;;;0.20;;
57985;SDS011;43788;42.670;23.330;2022-12-15T04:56:00;0.20;;;0.20;;
57985;SDS011;43788;42.670;23.330;2022-12-15T04:58:45;0.30;;;0.30;;
57985;SDS011;43788;42.670;23.330;2022-12-15T05:01:29;0.10;;;0.10;;
57985;SDS011;43788;42.670;23.330;2022-12-15T05:04:18;0.40;;;0.40;;
57985;SDS011;43788;42.670;23.330;2022-12-15T05:07:02;0.10;;;0.10;;
57985;SDS011;43788;42.670;23.330;2022-12-15T05:09:46;0.20;;;0.20;;
57985;SDS011;43788;42.670;23.330;2022-12-15T05:12:33;0.08;;;0.08;;
57985;SDS011;43788;42.670;23.330;2022-12-15T05:15:17;0.03;;;0.03;;
57985;SDS011;43788;42.670;23.330;2022-12-15T05:18:04;0.10;;;0.10;;
57985;SDS011;43788;42.670;23.330;2022-12-15T05:20:48;0.10;;;0.10;;
57985;SDS011;43788;42.670;23.330;2022-12-15T05:23:32;0.10;;;0.10;;
57985;SDS011;43788;42.670;23.330;2022-12-15T05:29:49;0.23;;;0.23;;
57985;SDS011;43788;42.670;23.330;2022-12-15T05:32:56;0.30;;;0.30;;
57985;SDS011;43788;42.670;23.330;2022-12-15T05:35:21;0.10;;;0.10;;
57985;SDS011;43788;42.670;23.330;2022-12-15T05:37:47;0.20;;;0.20;;
57985;SDS011;43788;42.670;23.330;2022-12-15T05:40:12;0.10;;;0.10;;
57985;SDS011;43788;42.670;23.330;2022-12-15T05:42:38;0.10;;;0.10;;
57985;SDS011;43788;42.670;23.330;2022-12-15T05:45:04;0.17;;;0.17;;
57985;SDS011;43788;42.670;23.330;2022-12-15T05:47:29;0.20;;;0.20;;
57985;SDS011;43788;42.670;23.330;2022-12-15T05:49:55;0.20;;;0.20;;
57985;SDS011;43788;42.670;23.330;2022-12-15T05:52:20;0.10;;;0.10;;
57985;SDS011;43788;42.670;23.330;2022-12-15T05:57:35;0.47;;;0.47;;
57985;SDS011;43788;42.670;23.330;2022-12-15T06:00:02;0.32;;;0.32;;
57985;SDS011;43788;42.670;23.330;2022-12-15T06:02:28;0.35;;;0.35;;
57985;SDS011;43788;42.670;23.330;2022-12-15T06:07:22;0.20;;;0.20;;
57985;SDS011;43788;42.670;23.330;2022-12-15T06:09:48;0.25;;;0.25;;
57985;SDS011;43788;42.670;23.330;2022-12-15T06:12:13;0.30;;;0.30;;
57985;SDS011;43788;42.670;23.330;2022-12-15T06:14:39;0.20;;;0.20;;
57985;SDS011;43788;42.670;23.330;2022-12-15T06:17:04;0.43;;;0.43;;
57985;SDS011;43788;42.670;23.330;2022-12-15T06:19:31;0.25;;;0.25;;
57985;SDS011;43788;42.670;23.330;2022-12-15T06:21:56;0.32;;;0.32;;
57985;SDS011;43788;42.670;23.330;2022-12-15T06:24:22;0.20;;;0.20;;
57985;SDS011;43788;42.670;23.330;2022-12-15T06:26:50;0.40;;;0.40;;
57985;SDS011;43788;42.670;23.330;2022-12-15T06:29:22;0.20;;;0.20;;
57985;SDS011;43788;42.670;23.330;2022-12-15T06:31:48;0.70;;;0.60;;
57985;SDS011;43788;42.670;23.330;2022-12-15T06:34:14;0.35;;;0.35;;
57985;SDS011;43788;42.670;23.330;2022-12-15T06:36:42;0.30;;;0.30;;
57985;SDS011;43788;42.670;23.330;2022-12-15T06:39:09;0.50;;;0.50;;
57985;SDS011;43788;42.670;23.330;2022-12-15T06:41:36;0.47;;;0.47;;
57985;SDS011;43788;42.670;23.330;2022-12-15T06:44:03;0.47;;;0.47;;
57985;SDS011;43788;42.670;23.330;2022-12-15T06:46:29;0.20;;;0.20;;
57985;SDS011;43788;42.670;23.330;2022-12-15T06:48:56;0.20;;;0.20;;
57985;SDS011;43788;42.670;23.330;2022-12-15T06:51:26;0.30;;;0.30;;
57985;SDS011;43788;42.670;23.330;2022-12-15T06:53:58;0.20;;;0.20;;
57985;SDS011;43788;42.670;23.330;2022-12-15T06:56:24;0.10;;;0.10;;
57985;SDS011;43788;42.670;23.330;2022-12-15T06:59:01;0.10;;;0.10;;
57985;SDS011;43788;42.670;23.330;2022-12-15T07:09:04;0.20;;;0.20;;
57985;SDS011;43788;42.670;23.330;2022-12-15T07:11:31;0.20;;;0.20;;
57985;SDS011;43788;42.670;23.330;2022-12-15T07:13:57;0.30;;;0.30;;
57985;SDS011;43788;42.670;23.330;2022-12-15T07:16:23;0.50;;;0.50;;
57985;SDS011;43788;42.670;23.330;2022-12-15T07:18:48;0.30;;;0.30;;
57985;SDS011;43788;42.670;23.330;2022-12-15T07:21:16;0.30;;;0.30;;
57985;SDS011;43788;42.670;23.330;2022-12-15T07:23:43;0.30;;;0.30;;
57985;SDS011;43788;42.670;23.330;2022-12-15T07:26:09;0.20;;;0.20;;
57985;SDS011;43788;42.670;23.330;2022-12-15T07:28:36;0.17;;;0.17;;
57985;SDS011;43788;42.670;23.330;2022-12-15T07:31:02;0.17;;;0.17;;
57985;SDS011;43788;42.670;23.330;2022-12-15T07:33:30;0.28;;;0.28;;
57985;SDS011;43788;42.670;23.330;2022-12-15T07:35:56;0.30;;;0.30;;
57985;SDS011;43788;42.670;23.330;2022-12-15T07:38:22;0.52;;;0.52;;
57985;SDS011;43788;42.670;23.330;2022-12-15T07:40:47;0.20;;;0.20;;
57985;SDS011;43788;42.670;23.330;2022-12-15T07:43:13;0.20;;;0.20;;
57985;SDS011;43788;42.670;23.330;2022-12-15T07:45:38;0.10;;;0.10;;
57985;SDS011;43788;42.670;23.330;2022-12-15T07:48:04;0.20;;;0.20;;
57985;SDS011;43788;42.670;23.330;2022-12-15T07:50:35;0.25;;;0.25;;
57985;SDS011;43788;42.670;23.330;2022-12-15T07:53:03;0.20;;;0.20;;
57985;SDS011;43788;42.670;23.330;2022-12-15T07:58:44;0.30;;;0.30;;
57985;SDS011;43788;42.670;23.330;2022-12-15T08:01:11;0.28;;;0.28;;
57985;SDS011;43788;42.670;23.330;2022-12-15T08:03:37;0.28;;;0.28;;
57985;SDS011;43788;42.670;23.330;2022-12-15T08:06:04;0.17;;;0.17;;
57985;SDS011;43788;42.670;23.330;2022-12-15T08:08:42;0.30;;;0.30;;
57985;SDS011;43788;42.670;23.330;2022-12-15T08:11:12;0.30;;;0.30;;
57985;SDS011;43788;42.670;23.330;2022-12-15T08:13:41;0.28;;;0.28;;
57985;SDS011;43788;42.670;23.330;2022-12-15T08:16:07;0.30;;;0.30;;
57985;SDS011;43788;42.670;23.330;2022-12-15T08:18:33;0.35;;;0.35;;
57985;SDS011;43788;42.670;23.330;2022-12-15T08:21:01;0.38;;;0.38;;
57985;SDS011;43788;42.670;23.330;2022-12-15T08:23:28;0.20;;;0.20;;
57985;SDS011;43788;42.670;23.330;2022-12-15T08:25:53;0.17;;;0.17;;
57985;SDS011;43788;42.670;23.330;2022-12-15T08:28:19;0.10;;;0.10;;
57985;SDS011;43788;42.670;23.330;2022-12-15T08:30:45;0.10;;;0.10;;
57985;SDS011;43788;42.670;23.330;2022-12-15T08:33:12;0.30;;;0.30;;
57985;SDS011;43788;42.670;23.330;2022-12-15T08:35:38;0.30;;;0.30;;
57985;SDS011;43788;42.670;23.330;2022-12-15T08:38:05;0.38;;;0.38;;
57985;SDS011;43788;42.670;23.330;2022-12-15T08:40:30;0.25;;;0.25;;
57985;SDS011;43788;42.670;23.330;2022-12-15T08:42:55;0.47;;;0.40;;
57985;SDS011;43788;42.670;23.330;2022-12-15T08:45:22;0.30;;;0.30;;
57985;SDS011;43788;42.670;23.330;2022-12-15T08:47:48;0.30;;;0.30;;
57985;SDS011;43788;42.670;23.330;2022-12-15T08:50:13;0.10;;;0.10;;
57985;SDS011;43788;42.670;23.330;2022-12-15T08:52:39;0.30;;;0.30;;
57985;SDS011;43788;42.670;23.330;2022-12-15T08:55:09;0.30;;;0.30;;
57985;SDS011;43788;42.670;23.330;2022-12-15T08:57:37;0.38;;;0.38;;
57985;SDS011;43788;42.670;23.330;2022-12-15T09:00:04;0.30;;;0.30;;
57985;SDS011;43788;42.670;23.330;2022-12-15T09:02:30;0.20;;;0.20;;
57985;SDS011;43788;42.670;23.330;2022-12-15T09:04:56;0.40;;;0.40;;
57985;SDS011;43788;42.670;23.330;2022-12-15T09:07:23;0.32;;;0.32;;
57985;SDS011;43788;42.670;23.330;2022-12-15T09:09:48;0.20;;;0.20;;
57985;SDS011;43788;42.670;23.330;2022-12-15T09:12:14;0.40;;;0.40;;
57985;SDS011;43788;42.670;23.330;2022-12-15T09:14:39;0.30;;;0.30;;
57985;SDS011;43788;42.670;23.330;2022-12-15T09:17:05;0.35;;;0.35;;
57985;SDS011;43788;42.670;23.330;2022-12-15T09:19:30;0.20;;;0.20;;
57985;SDS011;43788;42.670;23.330;2022-12-15T09:21:55;0.50;;;0.50;;
57985;SDS011;43788;42.670;23.330;2022-12-15T09:24:21;0.30;;;0.30;;
57985;SDS011;43788;42.670;23.330;2022-12-15T09:26:48;0.50;;;0.50;;
57985;SDS011;43788;42.670;23.330;2022-12-15T09:29:13;0.30;;;0.30;;
57985;SDS011;43788;42.670;23.330;2022-12-15T09:31:39;0.75;;;0.40;;
57985;SDS011;43788;42.670;23.330;2022-12-15T09:34:04;0.32;;;0.32;;
57985;SDS011;43788;42.670;23.330;2022-12-15T09:36:30;0.32;;;0.32;;
57985;SDS011;43788;42.670;23.330;2022-12-15T09:38:59;0.30;;;0.30;;
57985;SDS011;43788;42.670;23.330;2022-12-15T09:41:26;0.32;;;0.32;;
57985;SDS011;43788;42.670;23.330;2022-12-15T09:43:57;0.40;;;0.40;;
57985;SDS011;43788;42.670;23.330;2022-12-15T09:53:30;0.30;;;0.30;;
57985;SDS011;43788;42.670;23.330;2022-12-15T09:56:21;0.40;;;0.40;;
57985;SDS011;43788;42.670;23.330;2022-12-15T09:59:39;0.82;;;0.80;;
57985;SDS011;43788;42.670;23.330;2022-12-15T10:06:11;0.95;;;0.85;;
57985;SDS011;43788;42.670;23.330;2022-12-15T10:08:42;0.60;;;0.60;;
57985;SDS011;43788;42.670;23.330;2022-12-15T10:25:29;0.60;;;0.60;;
57985;SDS011;43788;42.670;23.330;2022-12-15T10:31:12;0.50;;;0.45;;
57985;SDS011;43788;42.670;23.330;2022-12-15T10:33:43;0.65;;;0.65;;
57985;SDS011;43788;42.670;23.330;2022-12-15T10:36:13;0.73;;;0.73;;
57985;SDS011;43788;42.670;23.330;2022-12-15T10:38:40;0.88;;;0.88;;
57985;SDS011;43788;42.670;23.330;2022-12-15T10:41:14;1.08;;;0.80;;
57985;SDS011;43788;42.670;23.330;2022-12-15T10:43:41;0.82;;;0.82;;
57985;SDS011;43788;42.670;23.330;2022-12-15T10:46:19;0.75;;;0.75;;
57985;SDS011;43788;42.670;23.330;2022-12-15T10:48:50;0.57;;;0.57;;
57985;SDS011;43788;42.670;23.330;2022-12-15T10:51:43;0.60;;;0.60;;
57985;SDS011;43788;42.670;23.330;2022-12-15T10:54:11;0.50;;;0.50;;
57985;SDS011;43788;42.670;23.330;2022-12-15T10:56:46;0.57;;;0.57;;
57985;SDS011;43788;42.670;23.330;2022-12-15T10:59:24;0.77;;;0.77;;
57985;SDS011;43788;42.670;23.330;2022-12-15T11:02:05;0.90;;;0.90;;
57985;SDS011;43788;42.670;23.330;2022-12-15T11:07:39;0.70;;;0.70;;
57985;SDS011;43788;42.670;23.330;2022-12-15T11:15:44;0.68;;;0.57;;
57985;SDS011;43788;42.670;23.330;2022-12-15T11:18:13;0.60;;;0.60;;
57985;SDS011;43788;42.670;23.330;2022-12-15T11:21:07;0.43;;;0.43;;
57985;SDS011;43788;42.670;23.330;2022-12-15T11:29:22;0.50;;;0.50;;
57985;SDS011;43788;42.670;23.330;2022-12-15T11:31:49;0.45;;;0.45;;
57985;SDS011;43788;42.670;23.330;2022-12-15T11:34:17;0.73;;;0.73;;
57985;SDS011;43788;42.670;23.330;2022-12-15T11:36:57;0.60;;;0.60;;
57985;SDS011;43788;42.670;23.330;2022-12-15T11:42:12;0.80;;;0.80;;
57985;SDS011;43788;42.670;23.330;2022-12-15T11:44:53;0.57;;;0.57;;
57985;SDS011;43788;42.670;23.330;2022-12-15T11:47:42;0.88;;;0.88;;
57985;SDS011;43788;42.670;23.330;2022-12-15T11:55:38;0.75;;;0.75;;
57985;SDS011;43788;42.670;23.330;2022-12-15T11:58:25;0.68;;;0.68;;
57985;SDS011;43788;42.670;23.330;2022-12-15T12:07:07;0.70;;;0.70;;
57985;SDS011;43788;42.670;23.330;2022-12-15T12:12:37;0.98;;;0.70;;
57985;SDS011;43788;42.670;23.330;2022-12-15T12:18:54;1.58;;;0.90;;
57985;SDS011;43788;42.670;23.330;2022-12-15T12:21:34;1.10;;;0.95;;
57985;SDS011;43788;42.670;23.330;2022-12-15T12:24:04;0.65;;;0.65;;
57985;SDS011;43788;42.670;23.330;2022-12-15T12:30:19;0.60;;;0.60;;
57985;SDS011;43788;42.670;23.330;2022-12-15T12:33:11;0.88;;;0.82;;
57985;SDS011;43788;42.670;23.330;2022-12-15T12:38:23;1.10;;;0.50;;
57985;SDS011;43788;42.670;23.330;2022-12-15T12:43:31;0.63;;;0.63;;
57985;SDS011;43788;42.670;23.330;2022-12-15T12:46:05;0.63;;;0.63;;
57985;SDS011;43788;42.670;23.330;2022-12-15T12:48:42;0.57;;;0.57;;
57985;SDS011;43788;42.670;23.330;2022-12-15T12:51:35;1.08;;;0.90;;
57985;SDS011;43788;42.670;23.330;2022-12-15T13:00:36;0.60;;;0.60;;
57985;SDS011;43788;42.670;23.330;2022-12-15T13:09:24;0.70;;;0.70;;
57985;SDS011;43788;42.670;23.330;2022-12-15T13:12:01;0.68;;;0.68;;
57985;SDS011;43788;42.670;23.330;2022-12-15T13:14:34;0.73;;;0.60;;
57985;SDS011;43788;42.670;23.330;2022-12-15T13:17:21;0.73;;;0.73;;
57985;SDS011;43788;42.670;23.330;2022-12-15T13:22:31;0.60;;;0.60;;
57985;SDS011;43788;42.670;23.330;2022-12-15T13:24:58;0.82;;;0.82;;
57985;SDS011;43788;42.670;23.330;2022-12-15T13:27:34;0.50;;;0.50;;
57985;SDS011;43788;42.670;23.330;2022-12-15T13:32:36;0.55;;;0.50;;
57985;SDS011;43788;42.670;23.330;2022-12-15T13:42:46;0.57;;;0.57;;
57985;SDS011;43788;42.670;23.330;2022-12-15T13:45:43;0.93;;;0.93;;
57985;SDS011;43788;42.670;23.330;2022-12-15T13:50:57;0.80;;;0.80;;
57985;SDS011;43788;42.670;23.330;2022-12-15T13:53:54;1.00;;;1.00;;
57985;SDS011;43788;42.670;23.330;2022-12-15T13:56:36;0.63;;;0.63;;
57985;SDS011;43788;42.670;23.330;2022-12-15T13:59:17;0.77;;;0.77;;
57985;SDS011;43788;42.670;23.330;2022-12-15T14:01:48;0.60;;;0.60;;
57985;SDS011;43788;42.670;23.330;2022-12-15T14:04:15;0.85;;;0.85;;
57985;SDS011;43788;42.670;23.330;2022-12-15T14:06:55;0.80;;;0.80;;
57985;SDS011;43788;42.670;23.330;2022-12-15T14:09:36;0.90;;;0.90;;
57985;SDS011;43788;42.670;23.330;2022-12-15T14:12:03;0.70;;;0.70;;
57985;SDS011;43788;42.670;23.330;2022-12-15T14:14:31;0.80;;;0.80;;
57985;SDS011;43788;42.670;23.330;2022-12-15T14:16:59;1.20;;;1.10;;
57985;SDS011;43788;42.670;23.330;2022-12-15T14:19:35;0.80;;;0.80;;
57985;SDS011;43788;42.670;23.330;2022-12-15T14:24:43;0.88;;;0.88;;
57985;SDS011;43788;42.670;23.330;2022-12-15T14:35:43;0.75;;;0.75;;
57985;SDS011;43788;42.670;23.330;2022-12-15T14:38:11;0.70;;;0.70;;
57985;SDS011;43788;42.670;23.330;2022-12-15T14:40:39;0.60;;;0.60;;
57985;SDS011;43788;42.670;23.330;2022-12-15T14:43:08;0.60;;;0.60;;
57985;SDS011;43788;42.670;23.330;2022-12-15T14:45:43;0.65;;;0.65;;
57985;SDS011;43788;42.670;23.330;2022-12-15T14:48:09;0.70;;;0.70;;
57985;SDS011;43788;42.670;23.330;2022-12-15T14:50:34;0.85;;;0.85;;
57985;SDS011;43788;42.670;23.330;2022-12-15T14:53:13;0.70;;;0.70;;
57985;SDS011;43788;42.670;23.330;2022-12-15T14:55:41;0.68;;;0.68;;
57985;SDS011;43788;42.670;23.330;2022-12-15T14:58:23;0.68;;;0.68;;
57985;SDS011;43788;42.670;23.330;2022-12-15T15:00:51;0.80;;;0.80;;
57985;SDS011;43788;42.670;23.330;2022-12-15T15:03:19;0.90;;;0.90;;
57985;SDS011;43788;42.670;23.330;2022-12-15T15:08:24;0.82;;;0.82;;
57985;SDS011;43788;42.670;23.330;2022-12-15T15:10:52;1.70;;;1.60;;
57985;SDS011;43788;42.670;23.330;2022-12-15T15:13:20;1.10;;;1.10;;
57985;SDS011;43788;42.670;23.330;2022-12-15T15:15:53;0.90;;;0.90;;
57985;SDS011;43788;42.670;23.330;2022-12-15T15:18:22;0.98;;;0.98;;
57985;SDS011;43788;42.670;23.330;2022-12-15T15:20:50;1.08;;;1.08;;
57985;SDS011;43788;42.670;23.330;2022-12-15T15:23:20;1.42;;;1.33;;
57985;SDS011;43788;42.670;23.330;2022-12-15T15:25:53;0.90;;;0.90;;
57985;SDS011;43788;42.670;23.330;2022-12-15T15:28:44;1.88;;;1.77;;
57985;SDS011;43788;42.670;23.330;2022-12-15T15:31:36;1.13;;;1.13;;
57985;SDS011;43788;42.670;23.330;2022-12-15T15:34:39;1.42;;;1.33;;
57985;SDS011;43788;42.670;23.330;2022-12-15T15:40:35;1.15;;;1.15;;
57985;SDS011;43788;42.670;23.330;2022-12-15T15:43:03;1.35;;;1.25;;
57985;SDS011;43788;42.670;23.330;2022-12-15T15:45:33;2.30;;;1.55;;
57985;SDS011;43788;42.670;23.330;2022-12-15T15:47:58;1.10;;;1.10;;
57985;SDS011;43788;42.670;23.330;2022-12-15T15:50:26;1.45;;;1.35;;
57985;SDS011;43788;42.670;23.330;2022-12-15T15:52:52;1.73;;;1.63;;
57985;SDS011;43788;42.670;23.330;2022-12-15T15:55:19;1.40;;;1.30;;
57985;SDS011;43788;42.670;23.330;2022-12-15T15:57:51;1.58;;;1.48;;
57985;SDS011;43788;42.670;23.330;2022-12-15T16:00:19;1.20;;;1.20;;
57985;SDS011;43788;42.670;23.330;2022-12-15T16:02:46;1.50;;;1.40;;
57985;SDS011;43788;42.670;23.330;2022-12-15T16:05:12;1.60;;;1.50;;
57985;SDS011;43788;42.670;23.330;2022-12-15T16:07:38;1.15;;;1.15;;
57985;SDS011;43788;42.670;23.330;2022-12-15T16:10:05;1.48;;;1.38;;
57985;SDS011;43788;42.670;23.330;2022-12-15T16:15:14;0.90;;;0.90;;
57985;SDS011;43788;42.670;23.330;2022-12-15T16:17:45;1.38;;;1.27;;
57985;SDS011;43788;42.670;23.330;2022-12-15T16:20:12;1.30;;;1.20;;
57985;SDS011;43788;42.670;23.330;2022-12-15T16:22:40;1.10;;;1.10;;
57985;SDS011;43788;42.670;23.330;2022-12-15T16:28:23;0.88;;;0.88;;
57985;SDS011;43788;42.670;23.330;2022-12-15T16:30:54;0.93;;;0.93;;
57985;SDS011;43788;42.670;23.330;2022-12-15T16:33:22;1.02;;;1.02;;
57985;SDS011;43788;42.670;23.330;2022-12-15T16:35:48;1.13;;;1.13;;
57985;SDS011;43788;42.670;23.330;2022-12-15T16:38:20;0.90;;;0.90;;
57985;SDS011;43788;42.670;23.330;2022-12-15T16:40:46;0.88;;;0.88;;
57985;SDS011;43788;42.670;23.330;2022-12-15T16:53:58;0.90;;;0.90;;
57985;SDS011;43788;42.670;23.330;2022-12-15T16:56:23;1.10;;;1.10;;
57985;SDS011;43788;42.670;23.330;2022-12-15T16:58:49;0.90;;;0.90;;
57985;SDS011;43788;42.670;23.330;2022-12-15T17:01:14;0.93;;;0.93;;
57985;SDS011;43788;42.670;23.330;2022-12-15T17:03:39;0.80;;;0.80;;
57985;SDS011;43788;42.670;23.330;2022-12-15T17:06:06;0.90;;;0.90;;
57985;SDS011;43788;42.670;23.330;2022-12-15T17:08:42;0.93;;;0.93;;
57985;SDS011;43788;42.670;23.330;2022-12-15T17:11:17;0.90;;;0.90;;
57985;SDS011;43788;42.670;23.330;2022-12-15T17:13:45;1.08;;;1.05;;
57985;SDS011;43788;42.670;23.330;2022-12-15T17:16:14;1.30;;;1.20;;
57985;SDS011;43788;42.670;23.330;2022-12-15T17:18:41;1.45;;;1.35;;
57985;SDS011;43788;42.670;23.330;2022-12-15T17:21:10;0.85;;;0.85;;
57985;SDS011;43788;42.670;23.330;2022-12-15T17:23:37;1.33;;;1.27;;
57985;SDS011;43788;42.670;23.330;2022-12-15T17:26:04;1.15;;;1.05;;
57985;SDS011;43788;42.670;23.330;2022-12-15T17:28:31;1.00;;;1.00;;
57985;SDS011;43788;42.670;23.330;2022-12-15T17:31:02;1.10;;;1.00;;
57985;SDS011;43788;42.670;23.330;2022-12-15T17:33:28;0.88;;;0.85;;
57985;SDS011;43788;42.670;23.330;2022-12-15T17:35:55;1.00;;;1.00;;
57985;SDS011;43788;42.670;23.330;2022-12-15T17:38:23;1.15;;;1.10;;
57985;SDS011;43788;42.670;23.330;2022-12-15T17:40:49;1.00;;;1.00;;
57985;SDS011;43788;42.670;23.330;2022-12-15T17:43:19;0.63;;;0.63;;
57985;SDS011;43788;42.670;23.330;2022-12-15T17:45:45;0.98;;;0.98;;
57985;SDS011;43788;42.670;23.330;2022-12-15T17:48:12;1.08;;;1.08;;
57985;SDS011;43788;42.670;23.330;2022-12-15T17:50:37;0.93;;;0.90;;
57985;SDS011;43788;42.670;23.330;2022-12-15T17:53:04;0.90;;;0.90;;
57985;SDS011;43788;42.670;23.330;2022-12-15T17:57:58;1.20;;;1.10;;
57985;SDS011;43788;42.670;23.330;2022-12-15T18:00:25;0.90;;;0.90;;
57985;SDS011;43788;42.670;23.330;2022-12-15T18:02:55;1.02;;;1.02;;
57985;SDS011;43788;42.670;23.330;2022-12-15T18:05:22;1.05;;;0.98;;
57985;SDS011;43788;42.670;23.330;2022-12-15T18:07:59;0.82;;;0.82;;
57985;SDS011;43788;42.670;23.330;2022-12-15T18:10:37;1.05;;;1.00;;
57985;SDS011;43788;42.670;23.330;2022-12-15T18:13:03;1.25;;;1.23;;
57985;SDS011;43788;42.670;23.330;2022-12-15T18:15:40;0.95;;;0.95;;
57985;SDS011;43788;42.670;23.330;2022-12-15T18:18:06;1.23;;;1.20;;
57985;SDS011;43788;42.670;23.330;2022-12-15T18:20:31;1.48;;;1.20;;
57985;SDS011;43788;42.670;23.330;2022-12-15T18:23:00;0.90;;;0.90;;
57985;SDS011;43788;42.670;23.330;2022-12-15T18:25:26;1.08;;;1.05;;
57985;SDS011;43788;42.670;23.330;2022-12-15T18:27:55;1.02;;;1.02;;
57985;SDS011;43788;42.670;23.330;2022-12-15T18:30:23;1.13;;;1.02;;
57985;SDS011;43788;42.670;23.330;2022-12-15T18:32:50;1.20;;;1.13;;